sensor_id;sensor_type;location;lat;lon;timestamp;P1;durP1;ratioP1;P2;durP2;ratioP2
28523;SDS011;15734;50.904;6.922;2022-09-21T00:01:58;12.00;;;3.78;;
28523;SDS011;15734;50.904;6.922;2022-09-21T00:04:24;14.45;;;5.13;;
28523;SDS011;15734;50.904;6.922;2022-09-21T00:06:49;9.65;;;4.15;;
28523;SDS011;15734;50.904;6.922;2022-09-21T00:09:15;8.98;;;3.88;;
28523;SDS011;15734;50.904;6.922;2022-09-21T00:11:40;9.35;;;3.20;;
28523;SDS011;15734;50.904;6.922;2022-09-21T00:14:08;7.50;;;3.42;;
28523;SDS011;15734;50.904;6.922;2022-09-21T00:16:36;10.82;;;3.28;;
28523;SDS011;15734;50.904;6.922;2022-09-21T00:19:02;6.28;;;3.00;;
28523;SDS011;15734;50.904;6.922;2022-09-21T00:21:28;11.15;;;3.55;;
28523;SDS011;15734;50.904;6.922;2022-09-21T00:23:54;19.52;;;3.92;;
28523;SDS011;15734;50.904;6.922;2022-09-21T00:26:20;12.40;;;3.88;;
28523;SDS011;15734;50.904;6.922;2022-09-21T00:28:51;11.85;;;3.78;;
28523;SDS011;15734;50.904;6.922;2022-09-21T00:31:24;16.80;;;3.65;;
28523;SDS011;15734;50.904;6.922;2022-09-21T00:33:50;13.88;;;4.97;;
28523;SDS011;15734;50.904;6.922;2022-09-21T00:36:17;10.80;;;3.92;;
28523;SDS011;15734;50.904;6.922;2022-09-21T00:38:48;14.15;;;4.20;;
28523;SDS011;15734;50.904;6.922;2022-09-21T00:41:14;9.05;;;2.85;;
28523;SDS011;15734;50.904;6.922;2022-09-21T00:43:48;14.40;;;3.65;;
28523;SDS011;15734;50.904;6.922;2022-09-21T00:46:33;14.55;;;4.25;;
28523;SDS011;15734;50.904;6.922;2022-09-21T00:49:03;11.65;;;3.60;;
28523;SDS011;15734;50.904;6.922;2022-09-21T00:51:29;14.90;;;3.67;;
28523;SDS011;15734;50.904;6.922;2022-09-21T00:53:57;17.67;;;4.57;;
28523;SDS011;15734;50.904;6.922;2022-09-21T00:56:26;10.85;;;4.20;;
28523;SDS011;15734;50.904;6.922;2022-09-21T00:58:53;9.63;;;3.50;;
28523;SDS011;15734;50.904;6.922;2022-09-21T01:01:19;12.30;;;3.70;;
28523;SDS011;15734;50.904;6.922;2022-09-21T01:03:46;9.80;;;3.95;;
28523;SDS011;15734;50.904;6.922;2022-09-21T01:06:15;8.98;;;3.85;;
28523;SDS011;15734;50.904;6.922;2022-09-21T01:08:43;8.80;;;3.55;;
28523;SDS011;15734;50.904;6.922;2022-09-21T01:22:42;11.95;;;4.22;;
28523;SDS011;15734;50.904;6.922;2022-09-21T01:30:36;19.52;;;4.75;;
28523;SDS011;15734;50.904;6.922;2022-09-21T01:33:09;9.02;;;4.43;;
28523;SDS011;15734;50.904;6.922;2022-09-21T01:35:48;21.80;;;5.60;;
28523;SDS011;15734;50.904;6.922;2022-09-21T01:40:48;15.93;;;4.10;;
28523;SDS011;15734;50.904;6.922;2022-09-21T01:43:21;9.95;;;3.92;;
28523;SDS011;15734;50.904;6.922;2022-09-21T01:45:54;10.18;;;5.15;;
28523;SDS011;15734;50.904;6.922;2022-09-21T01:48:25;8.60;;;3.65;;
28523;SDS011;15734;50.904;6.922;2022-09-21T01:50:55;11.02;;;4.47;;
28523;SDS011;15734;50.904;6.922;2022-09-21T01:53:23;11.10;;;4.25;;
28523;SDS011;15734;50.904;6.922;2022-09-21T01:55:56;15.98;;;4.32;;
28523;SDS011;15734;50.904;6.922;2022-09-21T02:00:57;21.35;;;5.05;;
28523;SDS011;15734;50.904;6.922;2022-09-21T02:03:32;14.50;;;4.68;;
28523;SDS011;15734;50.904;6.922;2022-09-21T02:06:02;16.60;;;4.05;;
28523;SDS011;15734;50.904;6.922;2022-09-21T02:08:30;11.77;;;4.38;;
28523;SDS011;15734;50.904;6.922;2022-09-21T02:10:56;17.50;;;4.97;;
28523;SDS011;15734;50.904;6.922;2022-09-21T02:13:24;21.52;;;4.57;;
28523;SDS011;15734;50.904;6.922;2022-09-21T02:15:57;19.77;;;4.97;;
28523;SDS011;15734;50.904;6.922;2022-09-21T02:18:51;16.20;;;5.18;;
28523;SDS011;15734;50.904;6.922;2022-09-21T02:21:36;16.08;;;5.22;;
28523;SDS011;15734;50.904;6.922;2022-09-21T02:24:18;15.23;;;6.05;;
28523;SDS011;15734;50.904;6.922;2022-09-21T02:27:05;13.30;;;4.72;;
28523;SDS011;15734;50.904;6.922;2022-09-21T02:35:24;21.83;;;5.25;;
28523;SDS011;15734;50.904;6.922;2022-09-21T02:38:40;16.77;;;5.22;;
28523;SDS011;15734;50.904;6.922;2022-09-21T02:40:55;16.85;;;5.53;;
28523;SDS011;15734;50.904;6.922;2022-09-21T02:43:45;13.18;;;4.05;;
28523;SDS011;15734;50.904;6.922;2022-09-21T02:46:21;14.23;;;4.75;;
28523;SDS011;15734;50.904;6.922;2022-09-21T02:48:53;9.90;;;5.07;;
28523;SDS011;15734;50.904;6.922;2022-09-21T02:51:24;17.85;;;5.15;;
28523;SDS011;15734;50.904;6.922;2022-09-21T02:53:54;22.80;;;8.48;;
28523;SDS011;15734;50.904;6.922;2022-09-21T02:56:22;11.77;;;4.40;;
28523;SDS011;15734;50.904;6.922;2022-09-21T02:58:51;16.67;;;5.22;;
28523;SDS011;15734;50.904;6.922;2022-09-21T03:01:19;16.77;;;5.45;;
28523;SDS011;15734;50.904;6.922;2022-09-21T03:03:47;12.30;;;5.35;;
28523;SDS011;15734;50.904;6.922;2022-09-21T03:06:13;14.52;;;5.65;;
28523;SDS011;15734;50.904;6.922;2022-09-21T03:08:38;15.75;;;5.32;;
28523;SDS011;15734;50.904;6.922;2022-09-21T03:11:04;10.70;;;4.70;;
28523;SDS011;15734;50.904;6.922;2022-09-21T03:13:30;11.18;;;5.28;;
28523;SDS011;15734;50.904;6.922;2022-09-21T03:15:59;13.43;;;4.68;;
28523;SDS011;15734;50.904;6.922;2022-09-21T03:18:26;16.50;;;5.35;;
28523;SDS011;15734;50.904;6.922;2022-09-21T03:20:52;11.82;;;3.92;;
28523;SDS011;15734;50.904;6.922;2022-09-21T03:23:18;12.82;;;5.00;;
28523;SDS011;15734;50.904;6.922;2022-09-21T03:25:43;11.70;;;4.88;;
28523;SDS011;15734;50.904;6.922;2022-09-21T03:28:10;15.80;;;6.03;;
28523;SDS011;15734;50.904;6.922;2022-09-21T03:30:36;16.13;;;5.25;;
28523;SDS011;15734;50.904;6.922;2022-09-21T03:33:02;11.82;;;4.35;;
28523;SDS011;15734;50.904;6.922;2022-09-21T03:35:29;13.60;;;5.50;;
28523;SDS011;15734;50.904;6.922;2022-09-21T03:37:55;9.70;;;4.55;;
28523;SDS011;15734;50.904;6.922;2022-09-21T03:40:22;11.82;;;4.85;;
28523;SDS011;15734;50.904;6.922;2022-09-21T03:42:47;15.35;;;5.13;;
28523;SDS011;15734;50.904;6.922;2022-09-21T03:45:13;12.98;;;4.90;;
28523;SDS011;15734;50.904;6.922;2022-09-21T03:47:38;23.88;;;5.43;;
28523;SDS011;15734;50.904;6.922;2022-09-21T03:50:05;12.02;;;4.43;;
28523;SDS011;15734;50.904;6.922;2022-09-21T03:52:31;12.13;;;4.13;;
28523;SDS011;15734;50.904;6.922;2022-09-21T03:54:57;16.27;;;5.25;;
28523;SDS011;15734;50.904;6.922;2022-09-21T03:57:23;9.88;;;4.82;;
28523;SDS011;15734;50.904;6.922;2022-09-21T03:59:48;12.85;;;4.50;;
28523;SDS011;15734;50.904;6.922;2022-09-21T04:02:14;13.82;;;4.70;;
28523;SDS011;15734;50.904;6.922;2022-09-21T04:04:40;17.15;;;5.80;;
28523;SDS011;15734;50.904;6.922;2022-09-21T04:07:06;13.38;;;4.55;;
28523;SDS011;15734;50.904;6.922;2022-09-21T04:09:32;9.75;;;4.38;;
28523;SDS011;15734;50.904;6.922;2022-09-21T04:11:58;16.23;;;4.95;;
28523;SDS011;15734;50.904;6.922;2022-09-21T04:14:23;10.48;;;4.63;;
28523;SDS011;15734;50.904;6.922;2022-09-21T04:16:49;10.27;;;4.78;;
28523;SDS011;15734;50.904;6.922;2022-09-21T04:19:16;11.38;;;4.57;;
28523;SDS011;15734;50.904;6.922;2022-09-21T04:21:42;16.30;;;5.63;;
28523;SDS011;15734;50.904;6.922;2022-09-21T04:24:07;13.43;;;4.95;;
28523;SDS011;15734;50.904;6.922;2022-09-21T04:26:33;11.70;;;5.30;;
28523;SDS011;15734;50.904;6.922;2022-09-21T04:28:59;16.48;;;6.18;;
28523;SDS011;15734;50.904;6.922;2022-09-21T04:31:25;12.52;;;5.93;;
28523;SDS011;15734;50.904;6.922;2022-09-21T04:33:53;15.40;;;6.20;;
28523;SDS011;15734;50.904;6.922;2022-09-21T04:36:20;15.50;;;6.40;;
28523;SDS011;15734;50.904;6.922;2022-09-21T04:38:47;16.30;;;6.07;;
28523;SDS011;15734;50.904;6.922;2022-09-21T04:41:14;15.00;;;6.72;;
28523;SDS011;15734;50.904;6.922;2022-09-21T04:43:40;17.27;;;6.15;;
28523;SDS011;15734;50.904;6.922;2022-09-21T04:46:08;17.38;;;6.53;;
28523;SDS011;15734;50.904;6.922;2022-09-21T04:48:35;12.85;;;7.13;;
28523;SDS011;15734;50.904;6.922;2022-09-21T04:51:01;12.90;;;6.95;;
28523;SDS011;15734;50.904;6.922;2022-09-21T04:53:28;19.35;;;6.55;;
28523;SDS011;15734;50.904;6.922;2022-09-21T04:55:54;15.25;;;6.72;;
28523;SDS011;15734;50.904;6.922;2022-09-21T04:58:20;13.70;;;7.45;;
28523;SDS011;15734;50.904;6.922;2022-09-21T05:00:50;15.43;;;7.78;;
28523;SDS011;15734;50.904;6.922;2022-09-21T05:03:17;18.60;;;8.23;;
28523;SDS011;15734;50.904;6.922;2022-09-21T05:05:50;24.80;;;9.30;;
28523;SDS011;15734;50.904;6.922;2022-09-21T05:08:17;22.67;;;9.95;;
28523;SDS011;15734;50.904;6.922;2022-09-21T05:11:07;18.83;;;9.63;;
28523;SDS011;15734;50.904;6.922;2022-09-21T05:13:34;21.80;;;9.13;;
28523;SDS011;15734;50.904;6.922;2022-09-21T05:16:00;23.88;;;9.90;;
28523;SDS011;15734;50.904;6.922;2022-09-21T05:18:27;23.60;;;10.35;;
28523;SDS011;15734;50.904;6.922;2022-09-21T05:20:56;25.17;;;10.05;;
28523;SDS011;15734;50.904;6.922;2022-09-21T05:23:24;20.10;;;9.85;;
28523;SDS011;15734;50.904;6.922;2022-09-21T05:25:50;21.17;;;10.07;;
28523;SDS011;15734;50.904;6.922;2022-09-21T05:28:16;16.52;;;9.00;;
28523;SDS011;15734;50.904;6.922;2022-09-21T05:30:43;27.63;;;9.48;;
28523;SDS011;15734;50.904;6.922;2022-09-21T05:33:12;23.80;;;10.82;;
28523;SDS011;15734;50.904;6.922;2022-09-21T05:38:44;39.17;;;10.88;;
28523;SDS011;15734;50.904;6.922;2022-09-21T05:41:10;44.97;;;12.32;;
28523;SDS011;15734;50.904;6.922;2022-09-21T05:43:35;33.00;;;11.35;;
28523;SDS011;15734;50.904;6.922;2022-09-21T05:46:10;127.03;;;16.67;;
28523;SDS011;15734;50.904;6.922;2022-09-21T05:48:54;26.25;;;9.68;;
28523;SDS011;15734;50.904;6.922;2022-09-21T05:51:34;32.17;;;10.10;;
28523;SDS011;15734;50.904;6.922;2022-09-21T05:57:18;20.23;;;9.40;;
28523;SDS011;15734;50.904;6.922;2022-09-21T06:00:14;23.33;;;10.20;;
28523;SDS011;15734;50.904;6.922;2022-09-21T06:02:54;18.90;;;9.38;;
28523;SDS011;15734;50.904;6.922;2022-09-21T06:05:33;15.82;;;8.82;;
28523;SDS011;15734;50.904;6.922;2022-09-21T06:07:58;26.45;;;10.00;;
28523;SDS011;15734;50.904;6.922;2022-09-21T06:10:24;17.08;;;9.55;;
28523;SDS011;15734;50.904;6.922;2022-09-21T06:12:53;22.90;;;10.60;;
28523;SDS011;15734;50.904;6.922;2022-09-21T06:15:19;19.15;;;10.65;;
28523;SDS011;15734;50.904;6.922;2022-09-21T06:17:44;21.10;;;10.55;;
28523;SDS011;15734;50.904;6.922;2022-09-21T06:20:10;31.45;;;10.90;;
28523;SDS011;15734;50.904;6.922;2022-09-21T06:22:35;25.67;;;11.13;;
28523;SDS011;15734;50.904;6.922;2022-09-21T06:25:01;23.33;;;11.95;;
28523;SDS011;15734;50.904;6.922;2022-09-21T06:27:27;23.88;;;11.25;;
28523;SDS011;15734;50.904;6.922;2022-09-21T06:29:53;28.25;;;13.18;;
28523;SDS011;15734;50.904;6.922;2022-09-21T06:32:18;21.88;;;11.63;;
28523;SDS011;15734;50.904;6.922;2022-09-21T06:34:44;28.60;;;12.85;;
28523;SDS011;15734;50.904;6.922;2022-09-21T06:37:09;39.28;;;13.65;;
28523;SDS011;15734;50.904;6.922;2022-09-21T06:39:35;26.35;;;13.02;;
28523;SDS011;15734;50.904;6.922;2022-09-21T06:42:01;24.23;;;12.43;;
28523;SDS011;15734;50.904;6.922;2022-09-21T06:44:26;35.35;;;13.52;;
28523;SDS011;15734;50.904;6.922;2022-09-21T06:46:53;31.50;;;14.65;;
28523;SDS011;15734;50.904;6.922;2022-09-21T06:49:19;34.35;;;13.13;;
28523;SDS011;15734;50.904;6.922;2022-09-21T06:51:46;57.78;;;18.05;;
28523;SDS011;15734;50.904;6.922;2022-09-21T06:54:12;39.75;;;17.48;;
28523;SDS011;15734;50.904;6.922;2022-09-21T06:56:37;47.88;;;17.08;;
28523;SDS011;15734;50.904;6.922;2022-09-21T06:59:03;30.80;;;14.25;;
28523;SDS011;15734;50.904;6.922;2022-09-21T07:01:28;35.08;;;14.13;;
28523;SDS011;15734;50.904;6.922;2022-09-21T07:03:54;40.10;;;15.15;;
28523;SDS011;15734;50.904;6.922;2022-09-21T07:06:19;32.10;;;14.68;;
28523;SDS011;15734;50.904;6.922;2022-09-21T07:08:50;36.35;;;14.50;;
28523;SDS011;15734;50.904;6.922;2022-09-21T07:11:17;33.13;;;15.80;;
28523;SDS011;15734;50.904;6.922;2022-09-21T07:13:43;34.00;;;15.57;;
28523;SDS011;15734;50.904;6.922;2022-09-21T07:16:09;30.88;;;15.38;;
28523;SDS011;15734;50.904;6.922;2022-09-21T07:18:35;37.08;;;16.98;;
28523;SDS011;15734;50.904;6.922;2022-09-21T07:21:03;37.38;;;16.90;;
28523;SDS011;15734;50.904;6.922;2022-09-21T07:23:30;43.42;;;17.52;;
28523;SDS011;15734;50.904;6.922;2022-09-21T07:25:59;31.20;;;16.38;;
28523;SDS011;15734;50.904;6.922;2022-09-21T07:28:26;35.08;;;16.92;;
28523;SDS011;15734;50.904;6.922;2022-09-21T07:30:51;35.33;;;17.50;;
28523;SDS011;15734;50.904;6.922;2022-09-21T07:33:17;37.42;;;18.42;;
28523;SDS011;15734;50.904;6.922;2022-09-21T07:35:49;44.30;;;19.25;;
28523;SDS011;15734;50.904;6.922;2022-09-21T07:38:20;40.38;;;18.40;;
28523;SDS011;15734;50.904;6.922;2022-09-21T07:40:47;35.83;;;17.23;;
28523;SDS011;15734;50.904;6.922;2022-09-21T07:43:13;39.05;;;18.83;;
28523;SDS011;15734;50.904;6.922;2022-09-21T07:45:38;43.03;;;17.25;;
28523;SDS011;15734;50.904;6.922;2022-09-21T07:48:04;36.45;;;18.67;;
28523;SDS011;15734;50.904;6.922;2022-09-21T07:50:30;41.88;;;19.90;;
28523;SDS011;15734;50.904;6.922;2022-09-21T07:52:58;44.10;;;19.35;;
28523;SDS011;15734;50.904;6.922;2022-09-21T07:55:24;47.47;;;23.17;;
28523;SDS011;15734;50.904;6.922;2022-09-21T07:57:50;49.63;;;23.50;;
28523;SDS011;15734;50.904;6.922;2022-09-21T08:00:34;52.85;;;23.90;;
28523;SDS011;15734;50.904;6.922;2022-09-21T08:03:00;47.63;;;22.20;;
28523;SDS011;15734;50.904;6.922;2022-09-21T08:05:26;45.08;;;21.27;;
28523;SDS011;15734;50.904;6.922;2022-09-21T08:07:54;50.22;;;24.17;;
28523;SDS011;15734;50.904;6.922;2022-09-21T08:10:20;51.60;;;23.88;;
28523;SDS011;15734;50.904;6.922;2022-09-21T08:12:46;53.35;;;26.45;;
28523;SDS011;15734;50.904;6.922;2022-09-21T08:15:12;55.05;;;24.50;;
28523;SDS011;15734;50.904;6.922;2022-09-21T08:17:38;56.95;;;27.13;;
28523;SDS011;15734;50.904;6.922;2022-09-21T08:20:04;54.08;;;26.75;;
28523;SDS011;15734;50.904;6.922;2022-09-21T08:22:30;57.20;;;26.65;;
28523;SDS011;15734;50.904;6.922;2022-09-21T08:24:56;61.42;;;27.15;;
28523;SDS011;15734;50.904;6.922;2022-09-21T08:27:22;55.72;;;28.00;;
28523;SDS011;15734;50.904;6.922;2022-09-21T08:29:49;61.13;;;26.33;;
28523;SDS011;15734;50.904;6.922;2022-09-21T08:32:15;58.28;;;28.73;;
28523;SDS011;15734;50.904;6.922;2022-09-21T08:34:40;55.05;;;26.83;;
28523;SDS011;15734;50.904;6.922;2022-09-21T08:37:06;58.20;;;25.27;;
28523;SDS011;15734;50.904;6.922;2022-09-21T08:39:32;54.22;;;24.85;;
28523;SDS011;15734;50.904;6.922;2022-09-21T08:42:07;44.88;;;23.52;;
28523;SDS011;15734;50.904;6.922;2022-09-21T08:44:46;49.25;;;23.05;;
28523;SDS011;15734;50.904;6.922;2022-09-21T08:47:23;52.05;;;22.70;;
28523;SDS011;15734;50.904;6.922;2022-09-21T08:49:58;45.53;;;22.27;;
28523;SDS011;15734;50.904;6.922;2022-09-21T08:52:26;46.70;;;22.00;;
28523;SDS011;15734;50.904;6.922;2022-09-21T08:57:41;47.42;;;23.98;;
28523;SDS011;15734;50.904;6.922;2022-09-21T09:00:06;49.25;;;23.50;;
28523;SDS011;15734;50.904;6.922;2022-09-21T09:10:35;41.25;;;22.23;;
28523;SDS011;15734;50.904;6.922;2022-09-21T09:18:53;49.05;;;23.45;;
28523;SDS011;15734;50.904;6.922;2022-09-21T09:21:24;48.05;;;22.25;;
28523;SDS011;15734;50.904;6.922;2022-09-21T09:26:36;37.33;;;19.00;;
28523;SDS011;15734;50.904;6.922;2022-09-21T09:31:42;42.23;;;20.17;;
28523;SDS011;15734;50.904;6.922;2022-09-21T09:37:10;38.38;;;17.83;;
28523;SDS011;15734;50.904;6.922;2022-09-21T09:39:38;36.42;;;17.85;;
28523;SDS011;15734;50.904;6.922;2022-09-21T09:45:02;29.48;;;17.77;;
28523;SDS011;15734;50.904;6.922;2022-09-21T09:50:34;28.45;;;16.38;;
28523;SDS011;15734;50.904;6.922;2022-09-21T09:53:04;24.08;;;14.65;;
28523;SDS011;15734;50.904;6.922;2022-09-21T09:55:34;25.27;;;13.63;;
28523;SDS011;15734;50.904;6.922;2022-09-21T09:58:05;26.05;;;13.70;;
28523;SDS011;15734;50.904;6.922;2022-09-21T10:00:44;26.08;;;11.38;;
28523;SDS011;15734;50.904;6.922;2022-09-21T10:03:15;21.17;;;10.90;;
28523;SDS011;15734;50.904;6.922;2022-09-21T10:05:43;13.30;;;8.65;;
28523;SDS011;15734;50.904;6.922;2022-09-21T10:08:43;17.77;;;9.05;;
28523;SDS011;15734;50.904;6.922;2022-09-21T10:11:01;11.05;;;6.00;;
28523;SDS011;15734;50.904;6.922;2022-09-21T10:13:28;19.15;;;7.90;;
28523;SDS011;15734;50.904;6.922;2022-09-21T10:15:57;18.05;;;6.88;;
28523;SDS011;15734;50.904;6.922;2022-09-21T10:23:57;9.38;;;5.00;;
28523;SDS011;15734;50.904;6.922;2022-09-21T10:26:35;17.33;;;4.38;;
28523;SDS011;15734;50.904;6.922;2022-09-21T10:32:01;11.05;;;5.18;;
28523;SDS011;15734;50.904;6.922;2022-09-21T10:34:29;12.70;;;5.60;;
28523;SDS011;15734;50.904;6.922;2022-09-21T10:36:58;11.20;;;4.60;;
28523;SDS011;15734;50.904;6.922;2022-09-21T10:39:29;11.45;;;3.67;;
28523;SDS011;15734;50.904;6.922;2022-09-21T10:41:59;8.85;;;3.45;;
28523;SDS011;15734;50.904;6.922;2022-09-21T10:44:37;8.48;;;3.58;;
28523;SDS011;15734;50.904;6.922;2022-09-21T10:49:57;10.23;;;3.03;;
28523;SDS011;15734;50.904;6.922;2022-09-21T10:52:33;13.77;;;2.85;;
28523;SDS011;15734;50.904;6.922;2022-09-21T10:55:03;4.80;;;1.77;;
28523;SDS011;15734;50.904;6.922;2022-09-21T10:57:29;8.18;;;1.70;;
28523;SDS011;15734;50.904;6.922;2022-09-21T11:00:02;7.45;;;1.70;;
28523;SDS011;15734;50.904;6.922;2022-09-21T11:02:53;2.13;;;0.90;;
28523;SDS011;15734;50.904;6.922;2022-09-21T11:10:29;8.30;;;1.10;;
28523;SDS011;15734;50.904;6.922;2022-09-21T11:13:22;1.50;;;0.90;;
28523;SDS011;15734;50.904;6.922;2022-09-21T11:15:58;6.88;;;0.82;;
28523;SDS011;15734;50.904;6.922;2022-09-21T11:26:50;7.60;;;1.10;;
28523;SDS011;15734;50.904;6.922;2022-09-21T11:29:25;5.90;;;1.20;;
28523;SDS011;15734;50.904;6.922;2022-09-21T11:34:45;5.63;;;1.20;;
28523;SDS011;15734;50.904;6.922;2022-09-21T11:47:36;4.18;;;1.38;;
28523;SDS011;15734;50.904;6.922;2022-09-21T11:50:21;8.60;;;1.42;;
28523;SDS011;15734;50.904;6.922;2022-09-21T11:53:14;3.15;;;1.25;;
28523;SDS011;15734;50.904;6.922;2022-09-21T12:07:00;5.93;;;1.50;;
28523;SDS011;15734;50.904;6.922;2022-09-21T12:09:56;4.00;;;1.00;;
28523;SDS011;15734;50.904;6.922;2022-09-21T12:12:34;3.85;;;1.00;;
28523;SDS011;15734;50.904;6.922;2022-09-21T12:20:02;2.78;;;1.02;;
28523;SDS011;15734;50.904;6.922;2022-09-21T12:22:50;5.35;;;1.25;;
28523;SDS011;15734;50.904;6.922;2022-09-21T12:28:23;4.00;;;1.25;;
28523;SDS011;15734;50.904;6.922;2022-09-21T12:30:51;5.97;;;1.83;;
28523;SDS011;15734;50.904;6.922;2022-09-21T12:33:40;6.43;;;0.93;;
28523;SDS011;15734;50.904;6.922;2022-09-21T12:36:34;7.43;;;1.55;;
28523;SDS011;15734;50.904;6.922;2022-09-21T12:39:09;5.85;;;1.15;;
28523;SDS011;15734;50.904;6.922;2022-09-21T12:49:58;3.05;;;0.93;;
28523;SDS011;15734;50.904;6.922;2022-09-21T12:52:29;5.38;;;0.80;;
28523;SDS011;15734;50.904;6.922;2022-09-21T12:55:03;5.65;;;0.88;;
28523;SDS011;15734;50.904;6.922;2022-09-21T13:03:47;5.07;;;0.90;;
28523;SDS011;15734;50.904;6.922;2022-09-21T13:08:48;4.57;;;0.68;;
28523;SDS011;15734;50.904;6.922;2022-09-21T13:11:15;2.70;;;0.82;;
28523;SDS011;15734;50.904;6.922;2022-09-21T13:13:46;3.58;;;0.60;;
28523;SDS011;15734;50.904;6.922;2022-09-21T13:16:23;1.75;;;0.60;;
28523;SDS011;15734;50.904;6.922;2022-09-21T13:19:01;5.23;;;0.80;;
28523;SDS011;15734;50.904;6.922;2022-09-21T13:24:44;3.22;;;0.80;;
28523;SDS011;15734;50.904;6.922;2022-09-21T13:27:23;2.15;;;0.45;;
28523;SDS011;15734;50.904;6.922;2022-09-21T13:34:03;3.90;;;0.50;;
28523;SDS011;15734;50.904;6.922;2022-09-21T13:40:56;2.20;;;0.70;;
28523;SDS011;15734;50.904;6.922;2022-09-21T13:43:24;2.53;;;0.60;;
28523;SDS011;15734;50.904;6.922;2022-09-21T13:46:43;4.45;;;0.65;;
28523;SDS011;15734;50.904;6.922;2022-09-21T13:49:03;4.25;;;0.80;;
28523;SDS011;15734;50.904;6.922;2022-09-21T13:51:51;3.75;;;0.68;;
28523;SDS011;15734;50.904;6.922;2022-09-21T13:54:25;4.32;;;0.80;;
28523;SDS011;15734;50.904;6.922;2022-09-21T13:57:02;7.10;;;0.63;;
28523;SDS011;15734;50.904;6.922;2022-09-21T13:59:33;2.55;;;0.70;;
28523;SDS011;15734;50.904;6.922;2022-09-21T14:02:02;4.47;;;0.60;;
28523;SDS011;15734;50.904;6.922;2022-09-21T14:04:46;4.03;;;0.70;;
28523;SDS011;15734;50.904;6.922;2022-09-21T14:07:14;2.55;;;1.00;;
28523;SDS011;15734;50.904;6.922;2022-09-21T14:09:41;5.55;;;0.80;;
28523;SDS011;15734;50.904;6.922;2022-09-21T14:12:18;1.90;;;0.50;;
28523;SDS011;15734;50.904;6.922;2022-09-21T14:17:37;4.32;;;0.80;;
28523;SDS011;15734;50.904;6.922;2022-09-21T14:20:05;4.07;;;0.52;;
28523;SDS011;15734;50.904;6.922;2022-09-21T14:23:10;2.35;;;0.50;;
28523;SDS011;15734;50.904;6.922;2022-09-21T14:25:51;3.85;;;0.75;;
28523;SDS011;15734;50.904;6.922;2022-09-21T14:28:23;2.58;;;0.50;;
28523;SDS011;15734;50.904;6.922;2022-09-21T14:30:56;4.72;;;0.80;;
28523;SDS011;15734;50.904;6.922;2022-09-21T14:33:27;2.58;;;0.70;;
28523;SDS011;15734;50.904;6.922;2022-09-21T14:35:57;2.05;;;0.93;;
28523;SDS011;15734;50.904;6.922;2022-09-21T14:38:27;1.52;;;0.30;;
28523;SDS011;15734;50.904;6.922;2022-09-21T14:40:59;0.82;;;0.63;;
28523;SDS011;15734;50.904;6.922;2022-09-21T14:43:31;6.40;;;0.60;;
28523;SDS011;15734;50.904;6.922;2022-09-21T14:48:36;4.05;;;0.60;;
28523;SDS011;15734;50.904;6.922;2022-09-21T14:53:55;3.33;;;0.80;;
28523;SDS011;15734;50.904;6.922;2022-09-21T14:56:29;4.00;;;0.68;;
28523;SDS011;15734;50.904;6.922;2022-09-21T15:01:55;6.20;;;0.75;;
28523;SDS011;15734;50.904;6.922;2022-09-21T15:07:33;2.78;;;0.90;;
28523;SDS011;15734;50.904;6.922;2022-09-21T15:16:45;1.70;;;0.80;;
28523;SDS011;15734;50.904;6.922;2022-09-21T15:21:43;2.80;;;0.80;;
28523;SDS011;15734;50.904;6.922;2022-09-21T15:24:16;4.90;;;0.70;;
28523;SDS011;15734;50.904;6.922;2022-09-21T15:26:49;3.30;;;1.05;;
28523;SDS011;15734;50.904;6.922;2022-09-21T15:29:19;2.15;;;0.70;;
28523;SDS011;15734;50.904;6.922;2022-09-21T15:31:49;5.15;;;0.80;;
28523;SDS011;15734;50.904;6.922;2022-09-21T15:34:15;3.33;;;1.02;;
28523;SDS011;15734;50.904;6.922;2022-09-21T15:36:41;7.93;;;1.02;;
28523;SDS011;15734;50.904;6.922;2022-09-21T15:41:47;5.18;;;0.85;;
28523;SDS011;15734;50.904;6.922;2022-09-21T15:44:15;3.88;;;0.65;;
28523;SDS011;15734;50.904;6.922;2022-09-21T15:46:51;4.07;;;0.85;;
28523;SDS011;15734;50.904;6.922;2022-09-21T15:49:23;4.75;;;1.17;;
28523;SDS011;15734;50.904;6.922;2022-09-21T15:51:52;4.30;;;1.08;;
28523;SDS011;15734;50.904;6.922;2022-09-21T15:54:28;3.85;;;0.60;;
28523;SDS011;15734;50.904;6.922;2022-09-21T15:57:02;5.55;;;1.67;;
28523;SDS011;15734;50.904;6.922;2022-09-21T15:59:30;1.40;;;0.82;;
28523;SDS011;15734;50.904;6.922;2022-09-21T16:01:58;6.03;;;0.70;;
28523;SDS011;15734;50.904;6.922;2022-09-21T16:04:33;7.25;;;0.70;;
28523;SDS011;15734;50.904;6.922;2022-09-21T16:07:04;5.00;;;0.63;;
28523;SDS011;15734;50.904;6.922;2022-09-21T16:12:22;4.72;;;1.00;;
28523;SDS011;15734;50.904;6.922;2022-09-21T16:14:51;2.97;;;0.82;;
28523;SDS011;15734;50.904;6.922;2022-09-21T16:17:22;1.83;;;0.80;;
28523;SDS011;15734;50.904;6.922;2022-09-21T16:25:13;7.13;;;1.00;;
28523;SDS011;15734;50.904;6.922;2022-09-21T16:27:51;3.00;;;0.93;;
28523;SDS011;15734;50.904;6.922;2022-09-21T16:36:11;4.07;;;0.88;;
28523;SDS011;15734;50.904;6.922;2022-09-21T16:38:50;5.68;;;1.73;;
28523;SDS011;15734;50.904;6.922;2022-09-21T16:41:20;2.88;;;1.00;;
28523;SDS011;15734;50.904;6.922;2022-09-21T16:43:48;3.17;;;0.98;;
28523;SDS011;15734;50.904;6.922;2022-09-21T16:46:15;7.10;;;1.25;;
28523;SDS011;15734;50.904;6.922;2022-09-21T16:48:41;2.90;;;0.80;;
28523;SDS011;15734;50.904;6.922;2022-09-21T16:51:12;8.93;;;1.05;;
28523;SDS011;15734;50.904;6.922;2022-09-21T16:53:39;4.28;;;1.20;;
28523;SDS011;15734;50.904;6.922;2022-09-21T16:56:08;1.77;;;0.82;;
28523;SDS011;15734;50.904;6.922;2022-09-21T16:58:38;4.43;;;1.10;;
28523;SDS011;15734;50.904;6.922;2022-09-21T17:01:04;3.97;;;1.30;;
28523;SDS011;15734;50.904;6.922;2022-09-21T17:03:33;3.08;;;1.10;;
28523;SDS011;15734;50.904;6.922;2022-09-21T17:05:59;6.97;;;1.27;;
28523;SDS011;15734;50.904;6.922;2022-09-21T17:08:24;6.50;;;1.58;;
28523;SDS011;15734;50.904;6.922;2022-09-21T17:10:53;5.85;;;1.10;;
28523;SDS011;15734;50.904;6.922;2022-09-21T17:13:19;8.00;;;1.40;;
28523;SDS011;15734;50.904;6.922;2022-09-21T17:15:46;5.38;;;1.60;;
28523;SDS011;15734;50.904;6.922;2022-09-21T17:18:12;4.43;;;1.55;;
28523;SDS011;15734;50.904;6.922;2022-09-21T17:20:39;6.15;;;1.38;;
28523;SDS011;15734;50.904;6.922;2022-09-21T17:23:06;6.93;;;1.20;;
28523;SDS011;15734;50.904;6.922;2022-09-21T17:25:33;5.82;;;1.40;;
28523;SDS011;15734;50.904;6.922;2022-09-21T17:28:00;2.42;;;1.38;;
28523;SDS011;15734;50.904;6.922;2022-09-21T17:30:26;8.60;;;1.42;;
28523;SDS011;15734;50.904;6.922;2022-09-21T17:32:53;6.32;;;1.30;;
28523;SDS011;15734;50.904;6.922;2022-09-21T17:35:52;8.00;;;1.23;;
28523;SDS011;15734;50.904;6.922;2022-09-21T17:38:11;3.17;;;1.23;;
28523;SDS011;15734;50.904;6.922;2022-09-21T17:40:37;4.95;;;1.50;;
28523;SDS011;15734;50.904;6.922;2022-09-21T17:45:53;3.83;;;1.45;;
28523;SDS011;15734;50.904;6.922;2022-09-21T17:48:27;5.57;;;1.73;;
28523;SDS011;15734;50.904;6.922;2022-09-21T17:50:53;4.40;;;1.60;;
28523;SDS011;15734;50.904;6.922;2022-09-21T17:53:19;9.90;;;1.75;;
28523;SDS011;15734;50.904;6.922;2022-09-21T17:59:02;3.35;;;1.52;;
28523;SDS011;15734;50.904;6.922;2022-09-21T18:04:04;10.25;;;2.35;;
28523;SDS011;15734;50.904;6.922;2022-09-21T18:06:31;9.13;;;2.55;;
28523;SDS011;15734;50.904;6.922;2022-09-21T18:08:58;8.90;;;2.50;;
28523;SDS011;15734;50.904;6.922;2022-09-21T18:16:44;16.17;;;3.97;;
28523;SDS011;15734;50.904;6.922;2022-09-21T18:19:28;7.40;;;3.35;;